createdAt,value
2018-01-30T00:02:00.000Z,9.6
2018-01-30T00:07:00.000Z,9.6
2018-01-30T00:12:00.000Z,9.6
2018-01-30T00:17:00.000Z,9.7
2018-01-30T00:22:00.000Z,9.7
2018-01-30T00:27:00.000Z,9.8
2018-01-30T00:32:00.000Z,9.8
2018-01-30T00:37:00.000Z,9.9
2018-01-30T00:42:00.000Z,9.9
2018-01-30T00:47:00.000Z,9.9
2018-01-30T00:52:00.000Z,9.8
2018-01-30T00:57:00.000Z,9.9
2018-01-30T01:02:00.000Z,9.9
2018-01-30T01:07:00.000Z,9.9
2018-01-30T01:12:00.000Z,9.9
2018-01-30T01:17:00.000Z,10.0
2018-01-30T01:22:00.000Z,10.1
2018-01-30T01:27:00.000Z,10.2
2018-01-30T01:32:00.000Z,10.2
2018-01-30T01:37:00.000Z,10.3
2018-01-30T01:42:00.000Z,10.3
2018-01-30T01:47:00.000Z,10.3
2018-01-30T01:52:00.000Z,10.4
2018-01-30T01:57:00.000Z,10.4
2018-01-30T02:02:00.000Z,10.4
2018-01-30T02:07:00.000Z,10.4
2018-01-30T02:12:00.000Z,10.4
2018-01-30T02:17:00.000Z,10.3
2018-01-30T02:22:00.000Z,10.2
2018-01-30T02:27:00.000Z,10.2
2018-01-30T02:32:00.000Z,10.2
2018-01-30T02:37:00.000Z,10.2
2018-01-30T02:43:00.000Z,10.1
2018-01-30T02:48:00.000Z,10.0
2018-01-30T02:53:00.000Z,9.9
2018-01-30T02:58:00.000Z,9.9
2018-01-30T03:03:00.000Z,9.9
2018-01-30T03:08:00.000Z,9.8
2018-01-30T03:13:00.000Z,9.8
2018-01-30T03:18:00.000Z,9.7
2018-01-30T03:23:00.000Z,9.6
2018-01-30T03:28:00.000Z,9.6
2018-01-30T03:33:00.000Z,9.6
2018-01-30T03:38:00.000Z,9.6
2018-01-30T03:43:00.000Z,9.6
2018-01-30T03:48:00.000Z,9.6
2018-01-30T03:53:00.000Z,9.6
2018-01-30T03:58:00.000Z,9.5
2018-01-30T04:03:00.000Z,9.5
2018-01-30T04:08:00.000Z,9.5
2018-01-30T04:13:00.000Z,9.5
2018-01-30T04:18:00.000Z,9.5
2018-01-30T04:23:00.000Z,9.5
2018-01-30T04:28:00.000Z,9.5
2018-01-30T04:33:00.000Z,9.4
2018-01-30T04:38:00.000Z,9.5
2018-01-30T04:43:00.000Z,9.4
2018-01-30T04:48:00.000Z,9.4
2018-01-30T04:53:00.000Z,9.4
2018-01-30T04:58:00.000Z,9.3
2018-01-30T05:03:00.000Z,9.3
2018-01-30T05:08:00.000Z,9.3
2018-01-30T05:13:00.000Z,9.3
2018-01-30T05:18:00.000Z,9.3
2018-01-30T05:23:00.000Z,9.4
2018-01-30T05:28:00.000Z,9.4
2018-01-30T05:33:00.000Z,9.4
2018-01-30T05:38:00.000Z,9.4
2018-01-30T05:43:00.000Z,9.4
2018-01-30T05:48:00.000Z,9.5
2018-01-30T05:53:00.000Z,9.5
2018-01-30T05:58:00.000Z,9.5
2018-01-30T06:03:00.000Z,9.6
2018-01-30T06:08:00.000Z,9.6
2018-01-30T06:13:00.000Z,9.7
2018-01-30T06:18:00.000Z,9.7
2018-01-30T06:23:00.000Z,9.5
2018-01-30T06:28:00.000Z,8.8
2018-01-30T06:33:00.000Z,8.5
2018-01-30T06:38:00.000Z,8.3
2018-01-30T06:43:00.000Z,8.2
2018-01-30T06:48:00.000Z,8.3
2018-01-30T06:53:00.000Z,8.2
2018-01-30T06:58:00.000Z,8.2
2018-01-30T07:03:00.000Z,8.2
2018-01-30T07:08:00.000Z,8.3
2018-01-30T07:13:00.000Z,8.3
2018-01-30T07:18:00.000Z,8.4
2018-01-30T07:23:00.000Z,8.4
2018-01-30T07:28:00.000Z,8.4
2018-01-30T07:33:00.000Z,8.4
2018-01-30T07:38:00.000Z,8.5
2018-01-30T07:43:00.000Z,8.5
2018-01-30T07:48:00.000Z,8.5
2018-01-30T07:53:00.000Z,8.4
2018-01-30T07:58:00.000Z,8.5
2018-01-30T08:03:00.000Z,8.4
2018-01-30T08:08:00.000Z,8.4
2018-01-30T08:13:00.000Z,8.4
2018-01-30T08:18:00.000Z,8.4
2018-01-30T08:23:00.000Z,8.3
2018-01-30T08:28:00.000Z,8.3
2018-01-30T08:33:00.000Z,8.4
2018-01-30T08:38:00.000Z,8.3
2018-01-30T08:44:00.000Z,8.3
2018-01-30T08:49:00.000Z,8.4
2018-01-30T08:54:00.000Z,8.5
2018-01-30T08:59:00.000Z,8.7
2018-01-30T09:04:00.000Z,8.7
2018-01-30T09:09:00.000Z,8.7
2018-01-30T09:14:00.000Z,8.8
2018-01-30T09:19:00.000Z,8.7
2018-01-30T09:24:00.000Z,8.7
2018-01-30T09:29:00.000Z,8.7
2018-01-30T09:34:00.000Z,8.6
2018-01-30T09:39:00.000Z,8.5
2018-01-30T09:44:00.000Z,8.6
2018-01-30T09:49:00.000Z,8.6
2018-01-30T09:54:00.000Z,8.6
2018-01-30T09:59:00.000Z,8.7
2018-01-30T10:04:00.000Z,8.7
2018-01-30T10:09:00.000Z,8.9
2018-01-30T10:14:00.000Z,8.8
2018-01-30T10:19:00.000Z,8.7
2018-01-30T10:24:00.000Z,8.6
2018-01-30T10:29:00.000Z,8.6
2018-01-30T10:34:00.000Z,8.6
2018-01-30T10:39:00.000Z,8.5
2018-01-30T10:44:00.000Z,8.6
2018-01-30T10:49:00.000Z,8.5
2018-01-30T10:54:00.000Z,8.7
2018-01-30T10:59:00.000Z,8.8
2018-01-30T11:04:00.000Z,8.9
2018-01-30T11:09:00.000Z,8.9
2018-01-30T11:14:00.000Z,9.0
2018-01-30T11:19:00.000Z,9.0
2018-01-30T11:24:00.000Z,9.1
2018-01-30T11:29:00.000Z,9.0
2018-01-30T11:34:00.000Z,8.9
2018-01-30T11:39:00.000Z,9.1
2018-01-30T11:44:00.000Z,9.2
2018-01-30T11:49:00.000Z,9.5
2018-01-30T11:54:00.000Z,9.5
2018-01-30T11:59:00.000Z,9.7
2018-01-30T12:04:00.000Z,9.7
2018-01-30T12:09:00.000Z,9.9
2018-01-30T12:14:00.000Z,9.9
2018-01-30T12:19:00.000Z,10.1
2018-01-30T12:24:00.000Z,10.1
2018-01-30T12:29:00.000Z,10.0
2018-01-30T12:34:00.000Z,9.9
2018-01-30T12:39:00.000Z,9.9
2018-01-30T12:44:00.000Z,10.0
2018-01-30T12:49:00.000Z,10.3
2018-01-30T12:54:00.000Z,10.5
2018-01-30T12:59:00.000Z,10.2
2018-01-30T13:04:00.000Z,10.4
2018-01-30T13:09:00.000Z,10.5
2018-01-30T13:14:00.000Z,10.3
2018-01-30T13:19:00.000Z,10.2
2018-01-30T13:24:00.000Z,10.2
2018-01-30T13:29:00.000Z,9.9
2018-01-30T13:34:00.000Z,10.4
2018-01-30T13:39:00.000Z,10.7
2018-01-30T13:44:00.000Z,10.7
2018-01-30T13:49:00.000Z,10.7
2018-01-30T13:54:00.000Z,10.9
2018-01-30T13:59:00.000Z,11.0
2018-01-30T14:04:00.000Z,10.8
2018-01-30T14:09:00.000Z,10.7
2018-01-30T14:14:00.000Z,10.5
2018-01-30T14:19:00.000Z,10.2
2018-01-30T14:24:00.000Z,10.0
2018-01-30T14:29:00.000Z,10.2
2018-01-30T14:34:00.000Z,10.1
2018-01-30T14:39:00.000Z,9.9
2018-01-30T14:44:00.000Z,9.8
2018-01-30T14:49:00.000Z,9.8
2018-01-30T14:55:00.000Z,9.7
2018-01-30T15:00:00.000Z,9.6
2018-01-30T15:05:00.000Z,9.4
2018-01-30T15:10:00.000Z,9.3
2018-01-30T15:15:00.000Z,9.2
2018-01-30T15:20:00.000Z,9.1
2018-01-30T15:25:00.000Z,9.2
2018-01-30T15:30:00.000Z,9.2
2018-01-30T15:35:00.000Z,9.2
2018-01-30T15:40:00.000Z,9.2
2018-01-30T15:45:00.000Z,9.2
2018-01-30T15:50:00.000Z,9.2
2018-01-30T15:55:00.000Z,9.2
2018-01-30T16:00:00.000Z,9.2
2018-01-30T16:05:00.000Z,9.2
2018-01-30T16:10:00.000Z,9.1
2018-01-30T16:15:00.000Z,9.2
2018-01-30T16:20:00.000Z,9.2
2018-01-30T16:25:00.000Z,9.3
2018-01-30T16:30:00.000Z,9.4
2018-01-30T16:35:00.000Z,9.3
2018-01-30T16:40:00.000Z,9.3
2018-01-30T16:45:00.000Z,9.1
2018-01-30T16:50:00.000Z,9.0
2018-01-30T16:55:00.000Z,8.9
2018-01-30T17:00:00.000Z,8.8
2018-01-30T17:05:00.000Z,8.8
2018-01-30T17:10:00.000Z,8.7
2018-01-30T17:15:00.000Z,8.6
2018-01-30T17:20:00.000Z,8.5
2018-01-30T17:25:00.000Z,8.5
2018-01-30T17:30:00.000Z,8.4
2018-01-30T17:35:00.000Z,8.4
2018-01-30T17:40:00.000Z,8.3
2018-01-30T17:45:00.000Z,8.3
2018-01-30T17:50:00.000Z,8.3
2018-01-30T17:55:00.000Z,8.2
2018-01-30T18:00:00.000Z,8.0
2018-01-30T18:05:00.000Z,8.0
2018-01-30T18:10:00.000Z,8.0
2018-01-30T18:15:00.000Z,8.0
2018-01-30T18:20:00.000Z,7.8
2018-01-30T18:25:00.000Z,7.8
2018-01-30T18:30:00.000Z,7.8
2018-01-30T18:35:00.000Z,7.8
2018-01-30T18:40:00.000Z,7.8
2018-01-30T18:45:00.000Z,7.9
2018-01-30T18:50:00.000Z,7.8
2018-01-30T18:55:00.000Z,7.8
2018-01-30T19:00:00.000Z,7.7
2018-01-30T19:05:00.000Z,7.7
2018-01-30T19:10:00.000Z,7.7
2018-01-30T19:15:00.000Z,7.7
2018-01-30T19:20:00.000Z,7.8
2018-01-30T19:25:00.000Z,7.8
2018-01-30T19:30:00.000Z,7.8
2018-01-30T19:35:00.000Z,7.8
2018-01-30T19:40:00.000Z,7.8
2018-01-30T19:45:00.000Z,7.8
2018-01-30T19:50:00.000Z,7.8
2018-01-30T19:55:00.000Z,7.7
2018-01-30T20:00:00.000Z,7.8
2018-01-30T20:05:00.000Z,7.7
2018-01-30T20:10:00.000Z,7.7
2018-01-30T20:15:00.000Z,7.7
2018-01-30T20:20:00.000Z,7.7
2018-01-30T20:25:00.000Z,7.7
2018-01-30T20:30:00.000Z,7.6
2018-01-30T20:35:00.000Z,7.6
2018-01-30T20:40:00.000Z,7.6
2018-01-30T20:45:00.000Z,7.6
2018-01-30T20:50:00.000Z,7.6
2018-01-30T20:56:00.000Z,7.7
2018-01-30T21:01:00.000Z,7.7
2018-01-30T21:06:00.000Z,7.8
2018-01-30T21:11:00.000Z,7.9
2018-01-30T21:16:00.000Z,7.9
2018-01-30T21:21:00.000Z,7.9
2018-01-30T21:26:00.000Z,8.0
2018-01-30T21:31:00.000Z,8.0
2018-01-30T21:36:00.000Z,7.9
2018-01-30T21:41:00.000Z,7.8
2018-01-30T21:46:00.000Z,7.8
2018-01-30T21:51:00.000Z,7.8
2018-01-30T21:56:00.000Z,7.8
2018-01-30T22:01:00.000Z,7.8
2018-01-30T22:06:00.000Z,7.7
2018-01-30T22:11:00.000Z,7.6
2018-01-30T22:16:00.000Z,7.6
2018-01-30T22:21:00.000Z,7.6
2018-01-30T22:26:00.000Z,7.5
2018-01-30T22:31:00.000Z,7.5
2018-01-30T22:36:00.000Z,7.5
2018-01-30T22:41:00.000Z,7.4
2018-01-30T22:46:00.000Z,7.3
